createdAt,value
2017-07-27T00:00:42.261Z,13.50
2017-07-27T00:03:09.820Z,13.50
2017-07-27T00:05:37.393Z,13.50
2017-07-27T00:08:05.002Z,13.50
2017-07-27T00:10:32.551Z,13.50
2017-07-27T00:13:00.135Z,13.50
2017-07-27T00:15:27.713Z,13.50
2017-07-27T00:17:55.279Z,13.50
2017-07-27T00:20:22.842Z,13.50
2017-07-27T00:22:50.398Z,13.40
2017-07-27T00:25:18.767Z,13.40
2017-07-27T00:27:47.092Z,13.40
2017-07-27T00:30:14.669Z,13.40
2017-07-27T00:32:42.216Z,13.50
2017-07-27T00:35:09.793Z,13.40
2017-07-27T00:37:38.118Z,13.40
2017-07-27T00:40:05.672Z,13.50
2017-07-27T00:42:33.286Z,13.50
2017-07-27T00:45:00.847Z,13.50
2017-07-27T00:47:28.417Z,13.40
2017-07-27T00:49:55.976Z,13.40
2017-07-27T00:52:23.550Z,13.40
2017-07-27T00:54:51.112Z,13.30
2017-07-27T00:57:18.681Z,13.30
2017-07-27T00:59:46.244Z,13.20
2017-07-27T01:02:13.829Z,13.10
2017-07-27T01:04:41.408Z,13.00
2017-07-27T01:07:08.962Z,12.90
2017-07-27T01:09:36.531Z,12.90
2017-07-27T01:12:04.077Z,12.90
2017-07-27T01:14:32.441Z,12.70
2017-07-27T01:16:59.991Z,12.70
2017-07-27T01:19:28.311Z,12.60
2017-07-27T01:21:55.876Z,12.50
2017-07-27T01:24:23.443Z,12.50
2017-07-27T01:26:51.012Z,12.40
2017-07-27T01:29:18.566Z,12.40
2017-07-27T01:31:46.147Z,12.30
2017-07-27T01:34:13.713Z,12.20
2017-07-27T01:36:41.302Z,12.10
2017-07-27T01:39:08.852Z,12.10
2017-07-27T01:41:36.422Z,12.10
2017-07-27T01:44:03.979Z,12.00
2017-07-27T01:46:31.559Z,12.00
2017-07-27T01:48:59.107Z,12.00
2017-07-27T01:51:26.681Z,12.00
2017-07-27T01:53:54.253Z,11.90
2017-07-27T01:56:21.793Z,12.00
2017-07-27T01:58:49.371Z,11.90
2017-07-27T02:01:17.823Z,11.80
2017-07-27T02:03:46.178Z,11.80
2017-07-27T02:06:14.526Z,11.80
2017-07-27T02:08:42.107Z,11.80
2017-07-27T02:11:09.653Z,11.80
2017-07-27T02:13:37.220Z,11.90
2017-07-27T02:16:04.766Z,11.90
2017-07-27T02:18:32.331Z,11.90
2017-07-27T02:20:59.919Z,11.90
2017-07-27T02:23:27.463Z,11.90
2017-07-27T02:25:55.046Z,11.80
2017-07-27T02:28:22.594Z,11.80
2017-07-27T02:30:50.162Z,11.80
2017-07-27T02:33:17.720Z,11.80
2017-07-27T02:35:45.290Z,11.80
2017-07-27T02:38:12.835Z,11.80
2017-07-27T02:40:40.415Z,11.70
2017-07-27T02:43:07.952Z,11.70
2017-07-27T02:45:35.511Z,11.60
2017-07-27T02:48:03.105Z,11.60
2017-07-27T02:50:30.742Z,11.50
2017-07-27T02:52:58.329Z,11.50
2017-07-27T02:55:26.810Z,11.40
2017-07-27T02:57:54.385Z,11.40
2017-07-27T03:00:21.928Z,11.40
2017-07-27T03:02:50.257Z,11.40
2017-07-27T03:05:17.807Z,11.40
2017-07-27T03:07:45.390Z,11.40
2017-07-27T03:10:12.941Z,11.40
2017-07-27T03:12:40.483Z,11.40
2017-07-27T03:15:08.047Z,11.50
2017-07-27T03:17:35.609Z,11.50
2017-07-27T03:20:03.185Z,11.40
2017-07-27T03:22:30.745Z,11.40
2017-07-27T03:24:58.315Z,11.40
2017-07-27T03:27:26.693Z,11.30
2017-07-27T03:29:54.255Z,11.30
2017-07-27T03:32:21.806Z,11.20
2017-07-27T03:34:50.154Z,11.20
2017-07-27T03:37:17.712Z,11.20
2017-07-27T03:39:45.251Z,11.20
2017-07-27T03:42:12.818Z,11.20
2017-07-27T03:44:40.370Z,11.20
2017-07-27T03:47:07.922Z,11.20
2017-07-27T03:49:35.470Z,11.10
2017-07-27T03:52:04.680Z,11.20
2017-07-27T03:54:33.003Z,11.20
2017-07-27T03:57:00.586Z,11.10
2017-07-27T03:59:28.133Z,11.20
2017-07-27T04:01:55.740Z,11.20
2017-07-27T04:04:24.605Z,11.30
2017-07-27T04:06:52.189Z,11.30
2017-07-27T04:09:19.739Z,11.50
2017-07-27T04:11:47.287Z,11.60
2017-07-27T04:14:14.847Z,11.70
2017-07-27T04:16:43.752Z,11.70
2017-07-27T04:19:12.126Z,11.70
2017-07-27T04:21:39.667Z,11.70
2017-07-27T04:24:07.232Z,11.70
2017-07-27T04:26:34.775Z,11.70
2017-07-27T04:29:03.110Z,11.70
2017-07-27T04:31:30.642Z,11.70
2017-07-27T04:33:58.215Z,11.70
2017-07-27T04:36:25.758Z,11.70
2017-07-27T04:38:54.110Z,11.80
2017-07-27T04:41:21.671Z,11.80
2017-07-27T04:43:49.222Z,12.10
2017-07-27T04:46:16.808Z,12.40
2017-07-27T04:48:44.384Z,12.50
2017-07-27T04:51:11.976Z,12.80
2017-07-27T04:53:39.548Z,12.90
2017-07-27T04:56:07.135Z,13.00
2017-07-27T04:58:34.678Z,13.10
2017-07-27T05:01:02.246Z,13.10
2017-07-27T05:03:29.799Z,13.30
2017-07-27T05:05:57.378Z,15.60
2017-07-27T05:08:24.939Z,19.40
2017-07-27T05:10:52.515Z,22.20
2017-07-27T05:13:20.061Z,24.70
2017-07-27T05:15:47.602Z,26.70
2017-07-27T05:18:15.937Z,29.50
2017-07-27T05:20:43.497Z,29.40
2017-07-27T05:23:11.074Z,29.70
2017-07-27T05:25:38.616Z,30.60
2017-07-27T05:28:06.187Z,30.00
2017-07-27T05:30:33.716Z,30.00
2017-07-27T05:33:01.265Z,30.70
2017-07-27T05:35:28.807Z,31.00
2017-07-27T05:37:56.383Z,31.20
2017-07-27T05:40:23.949Z,31.20
2017-07-27T05:42:51.509Z,31.80
2017-07-27T05:45:19.068Z,32.10
2017-07-27T05:47:46.595Z,31.50
2017-07-27T05:50:14.146Z,32.20
2017-07-27T05:52:42.573Z,34.00
2017-07-27T05:55:10.144Z,33.90
2017-07-27T05:57:37.679Z,35.40
2017-07-27T06:00:05.231Z,36.30
2017-07-27T06:02:33.532Z,37.40
2017-07-27T06:05:01.074Z,37.40
2017-07-27T06:07:28.603Z,38.20
2017-07-27T06:09:56.181Z,38.00
2017-07-27T06:12:23.714Z,38.00
2017-07-27T06:14:51.258Z,38.30
2017-07-27T06:17:18.875Z,36.40
2017-07-27T06:19:47.181Z,30.60
2017-07-27T06:22:14.745Z,30.50
2017-07-27T06:24:43.052Z,27.80
2017-07-27T06:27:10.641Z,27.70
2017-07-27T06:29:38.172Z,26.10
2017-07-27T06:32:05.731Z,24.90
2017-07-27T06:34:33.282Z,23.80
2017-07-27T06:37:00.838Z,23.20
2017-07-27T06:39:28.394Z,22.90
2017-07-27T06:41:55.954Z,22.20
2017-07-27T06:44:23.494Z,21.90
2017-07-27T06:46:51.103Z,21.60
2017-07-27T06:49:18.631Z,20.90
2017-07-27T06:51:46.188Z,20.60
2017-07-27T06:54:13.751Z,20.30
2017-07-27T06:56:41.274Z,20.20
2017-07-27T06:59:08.846Z,20.10
2017-07-27T07:01:36.788Z,19.80
2017-07-27T07:04:05.118Z,18.90
2017-07-27T07:06:32.704Z,18.90
2017-07-27T07:09:00.274Z,18.80
2017-07-27T07:11:27.809Z,18.40
2017-07-27T07:13:55.363Z,18.10
2017-07-27T07:16:23.859Z,17.80
2017-07-27T07:18:51.386Z,17.40
2017-07-27T07:21:18.953Z,17.20
2017-07-27T07:23:47.251Z,16.70
2017-07-27T07:26:14.816Z,16.70
2017-07-27T07:28:42.351Z,16.50
2017-07-27T07:31:09.918Z,16.40
2017-07-27T07:33:37.450Z,16.40
2017-07-27T07:36:05.038Z,16.50
2017-07-27T07:38:32.577Z,16.70
2017-07-27T07:41:00.150Z,16.80
2017-07-27T07:43:27.675Z,16.70
2017-07-27T07:45:55.231Z,16.70
2017-07-27T07:48:23.715Z,16.60
2017-07-27T07:50:51.257Z,16.60
2017-07-27T07:53:18.831Z,16.40
2017-07-27T07:55:47.138Z,16.20
2017-07-27T07:58:14.703Z,16.20
2017-07-27T08:00:42.232Z,16.10
2017-07-27T08:03:10.564Z,16.00
2017-07-27T08:05:38.091Z,16.00
2017-07-27T08:08:05.660Z,16.00
2017-07-27T08:10:34.495Z,16.20
2017-07-27T08:13:02.102Z,16.30
2017-07-27T08:15:30.434Z,16.30
2017-07-27T08:17:57.981Z,16.30
2017-07-27T08:20:25.551Z,16.40
2017-07-27T08:22:53.086Z,16.30
2017-07-27T08:25:21.307Z,16.40
2017-07-27T08:27:49.879Z,16.30
2017-07-27T08:30:17.640Z,16.30
2017-07-27T08:32:45.189Z,16.20
2017-07-27T08:35:12.734Z,16.10
2017-07-27T08:37:41.074Z,15.90
2017-07-27T08:40:08.619Z,15.90
2017-07-27T08:42:36.190Z,15.90
2017-07-27T08:45:03.723Z,16.00
2017-07-27T08:47:31.266Z,16.10
2017-07-27T08:49:58.796Z,16.40
2017-07-27T08:52:26.406Z,16.50
2017-07-27T08:54:53.948Z,16.80
2017-07-27T08:57:21.575Z,17.40
2017-07-27T08:59:49.180Z,17.80
2017-07-27T09:02:16.709Z,18.20
2017-07-27T09:04:44.249Z,18.50
2017-07-27T09:07:12.548Z,18.40
2017-07-27T09:09:40.146Z,18.30
2017-07-27T09:12:07.681Z,18.10
2017-07-27T09:14:35.251Z,18.50
2017-07-27T09:17:02.782Z,19.10
2017-07-27T09:19:30.399Z,19.70
2017-07-27T09:21:57.962Z,20.10
2017-07-27T09:24:25.529Z,20.50
2017-07-27T09:26:53.056Z,20.70
2017-07-27T09:29:21.379Z,21.10
2017-07-27T09:31:48.942Z,21.10
2017-07-27T09:34:16.479Z,21.20
2017-07-27T09:36:44.034Z,21.10
2017-07-27T09:39:12.369Z,20.60
2017-07-27T09:41:39.930Z,20.60
2017-07-27T09:44:07.458Z,20.40
2017-07-27T09:46:34.999Z,20.30
2017-07-27T09:49:02.550Z,20.30
2017-07-27T09:51:30.108Z,20.30
2017-07-27T09:53:57.654Z,20.80
2017-07-27T09:56:25.184Z,21.50
2017-07-27T09:58:52.761Z,22.10
2017-07-27T10:01:20.309Z,22.20
2017-07-27T10:03:47.862Z,21.90
2017-07-27T10:06:16.159Z,21.20
2017-07-27T10:08:43.803Z,21.20
2017-07-27T10:11:11.346Z,20.70
2017-07-27T10:13:38.948Z,20.30
2017-07-27T10:16:07.248Z,21.60
2017-07-27T10:18:34.825Z,21.60
2017-07-27T10:21:02.386Z,22.60
2017-07-27T10:23:29.928Z,22.90
2017-07-27T10:25:57.496Z,22.50
2017-07-27T10:28:25.069Z,22.10
2017-07-27T10:30:52.641Z,21.30
2017-07-27T10:33:20.226Z,20.80
2017-07-27T10:35:47.848Z,20.30
2017-07-27T10:38:16.166Z,19.60
2017-07-27T10:40:44.955Z,19.60
2017-07-27T10:43:12.493Z,19.60
2017-07-27T10:45:40.060Z,19.60
2017-07-27T10:48:07.603Z,19.60
2017-07-27T10:50:35.200Z,19.70
2017-07-27T10:53:02.760Z,19.80
2017-07-27T10:55:30.307Z,20.00
2017-07-27T10:57:58.626Z,20.60
2017-07-27T11:00:26.184Z,20.60
2017-07-27T11:02:53.783Z,21.00
2017-07-27T11:05:21.342Z,21.00
2017-07-27T11:07:48.918Z,21.20
2017-07-27T11:10:16.483Z,21.40
2017-07-27T11:12:44.053Z,21.70
2017-07-27T11:15:11.599Z,21.70
2017-07-27T11:17:39.144Z,21.50
2017-07-27T11:20:06.720Z,21.50
2017-07-27T11:22:34.277Z,21.90
2017-07-27T11:25:02.666Z,22.10
2017-07-27T11:27:30.212Z,22.00
2017-07-27T11:29:57.775Z,21.70
2017-07-27T11:32:25.344Z,21.50
2017-07-27T11:34:52.909Z,20.80
2017-07-27T11:37:20.449Z,20.30
2017-07-27T11:39:48.766Z,19.70
2017-07-27T11:42:16.308Z,19.70
2017-07-27T11:44:43.937Z,19.60
2017-07-27T11:47:12.448Z,19.40
2017-07-27T11:49:40.793Z,19.30
2017-07-27T11:52:08.361Z,19.30
2017-07-27T11:54:36.289Z,19.30
2017-07-27T11:57:04.802Z,19.10
2017-07-27T11:59:32.336Z,19.00
2017-07-27T12:01:59.935Z,18.70
2017-07-27T12:04:27.489Z,18.60
2017-07-27T12:06:55.051Z,18.70
2017-07-27T12:09:22.609Z,18.80
2017-07-27T12:11:50.174Z,18.90
2017-07-27T12:14:17.694Z,19.00
2017-07-27T12:16:45.274Z,19.00
2017-07-27T12:19:13.237Z,19.00
2017-07-27T12:21:41.540Z,18.70
2017-07-27T12:24:09.097Z,18.70
2017-07-27T12:26:37.391Z,18.50
2017-07-27T12:29:04.945Z,18.50
2017-07-27T12:31:33.258Z,18.10
2017-07-27T12:34:00.844Z,18.10
2017-07-27T12:36:28.412Z,18.20
2017-07-27T12:38:55.974Z,18.50
2017-07-27T12:41:23.522Z,18.80
2017-07-27T12:43:51.677Z,19.20
2017-07-27T12:46:19.217Z,19.30
2017-07-27T12:48:46.796Z,19.50
2017-07-27T12:51:15.122Z,20.20
2017-07-27T12:53:42.647Z,20.20
2017-07-27T12:56:10.210Z,20.40
2017-07-27T12:58:37.747Z,20.50
2017-07-27T13:01:05.302Z,20.50
2017-07-27T13:03:32.855Z,20.50
2017-07-27T13:06:00.409Z,20.60
2017-07-27T13:08:27.959Z,20.50
2017-07-27T13:10:55.609Z,20.30
2017-07-27T13:13:23.155Z,20.40
2017-07-27T13:15:50.799Z,20.30
2017-07-27T13:18:18.338Z,20.20
2017-07-27T13:20:45.865Z,20.10
2017-07-27T13:23:13.432Z,20.10
2017-07-27T13:25:42.021Z,20.30
2017-07-27T13:28:09.570Z,20.90
2017-07-27T13:30:37.893Z,21.30
2017-07-27T13:33:05.470Z,21.30
2017-07-27T13:35:33.012Z,21.00
2017-07-27T13:38:00.572Z,20.90
2017-07-27T13:40:28.136Z,20.80
2017-07-27T13:42:55.758Z,20.90
2017-07-27T13:45:23.295Z,20.90
2017-07-27T13:47:50.892Z,20.70
2017-07-27T13:50:18.437Z,20.80
2017-07-27T13:52:45.988Z,21.20
2017-07-27T13:55:13.597Z,21.20
2017-07-27T13:57:41.951Z,21.60
2017-07-27T14:00:10.307Z,21.60
2017-07-27T14:02:37.855Z,21.90
2017-07-27T14:05:06.318Z,22.10
2017-07-27T14:07:34.641Z,22.60
2017-07-27T14:10:02.281Z,22.60
2017-07-27T14:12:29.846Z,22.60
2017-07-27T14:14:57.405Z,22.60
2017-07-27T14:17:25.711Z,22.20
2017-07-27T14:19:53.305Z,22.20
2017-07-27T14:22:20.882Z,22.10
2017-07-27T14:24:48.421Z,21.80
2017-07-27T14:27:16.067Z,21.10
2017-07-27T14:29:44.648Z,20.50
2017-07-27T14:32:12.211Z,20.20
2017-07-27T14:34:39.767Z,20.20
2017-07-27T14:37:08.188Z,20.90
2017-07-27T14:39:35.736Z,20.90
2017-07-27T14:42:03.322Z,21.10
2017-07-27T14:44:30.860Z,20.90
2017-07-27T14:46:58.461Z,20.70
2017-07-27T14:49:26.017Z,20.50
2017-07-27T14:51:53.587Z,20.20
2017-07-27T14:54:21.119Z,19.80
2017-07-27T14:56:48.665Z,19.50
2017-07-27T14:59:16.248Z,19.60
2017-07-27T15:01:43.819Z,20.10
2017-07-27T15:04:11.447Z,20.40
2017-07-27T15:06:38.983Z,20.60
2017-07-27T15:09:06.549Z,21.00
2017-07-27T15:11:34.105Z,20.90
2017-07-27T15:14:01.659Z,20.70
2017-07-27T15:16:29.280Z,20.40
2017-07-27T15:18:56.866Z,20.20
2017-07-27T15:21:24.436Z,20.10
2017-07-27T15:23:52.024Z,20.50
2017-07-27T15:26:19.621Z,21.00
2017-07-27T15:28:47.154Z,21.50
2017-07-27T15:31:14.740Z,21.70
2017-07-27T15:33:42.279Z,21.90
2017-07-27T15:36:10.393Z,22.20
2017-07-27T15:38:37.927Z,22.60
2017-07-27T15:41:06.535Z,22.90
2017-07-27T15:43:34.080Z,22.70
2017-07-27T15:46:01.657Z,23.00
2017-07-27T15:48:29.219Z,23.60
2017-07-27T15:50:56.777Z,23.80
2017-07-27T15:53:24.323Z,23.40
2017-07-27T15:55:55.305Z,22.80
2017-07-27T15:58:22.880Z,22.20
2017-07-27T16:00:50.409Z,21.80
2017-07-27T16:03:17.974Z,21.40
2017-07-27T16:05:45.551Z,21.00
2017-07-27T16:08:13.106Z,20.80
2017-07-27T16:10:40.665Z,20.70
2017-07-27T16:13:08.193Z,20.60
2017-07-27T16:15:36.516Z,20.50
2017-07-27T16:18:04.078Z,20.50
2017-07-27T16:20:31.653Z,20.50
2017-07-27T16:22:59.263Z,20.60
2017-07-27T16:25:27.623Z,21.70
2017-07-27T16:27:55.193Z,21.70
2017-07-27T16:30:22.762Z,21.80
2017-07-27T16:32:50.307Z,21.70
2017-07-27T16:35:17.882Z,21.70
2017-07-27T16:37:45.423Z,21.80
2017-07-27T16:40:13.011Z,22.00
2017-07-27T16:42:40.587Z,22.10
2017-07-27T16:45:08.115Z,22.30
2017-07-27T16:47:35.697Z,22.40
2017-07-27T16:50:03.262Z,22.30
2017-07-27T16:52:30.839Z,22.30
2017-07-27T16:54:58.396Z,22.00
2017-07-27T16:57:25.955Z,21.80
2017-07-27T16:59:53.504Z,21.60
2017-07-27T17:02:21.087Z,21.30
2017-07-27T17:04:48.637Z,21.20
2017-07-27T17:07:16.174Z,21.10
2017-07-27T17:09:43.741Z,20.90
2017-07-27T17:12:11.281Z,20.70
2017-07-27T17:14:38.881Z,20.60
2017-07-27T17:17:06.422Z,20.40
2017-07-27T17:19:34.748Z,20.30
2017-07-27T17:22:02.313Z,20.30
2017-07-27T17:24:29.886Z,20.30
2017-07-27T17:26:57.434Z,20.10
2017-07-27T17:29:25.921Z,20.00
2017-07-27T17:31:53.474Z,19.90
2017-07-27T17:34:21.232Z,19.80
2017-07-27T17:36:48.845Z,19.80
2017-07-27T17:39:16.385Z,19.80
2017-07-27T17:41:43.957Z,19.80
2017-07-27T17:44:11.520Z,19.80
2017-07-27T17:46:39.105Z,19.70
2017-07-27T17:49:06.658Z,19.50
2017-07-27T17:51:34.238Z,19.50
2017-07-27T17:54:01.783Z,19.30
2017-07-27T17:56:29.357Z,19.20
2017-07-27T17:58:56.900Z,19.10
2017-07-27T18:01:24.462Z,19.00
2017-07-27T18:03:52.057Z,19.00
2017-07-27T18:06:19.632Z,18.90
2017-07-27T18:08:47.213Z,18.80
2017-07-27T18:11:14.835Z,18.80
2017-07-27T18:13:42.411Z,18.70
2017-07-27T18:16:09.998Z,18.60
2017-07-27T18:18:37.607Z,18.50
2017-07-27T18:21:05.161Z,18.40
2017-07-27T18:23:32.708Z,18.30
2017-07-27T18:26:03.710Z,18.30
2017-07-27T18:28:31.268Z,18.20
2017-07-27T18:30:58.818Z,18.10
2017-07-27T18:33:26.358Z,18.00
2017-07-27T18:35:53.942Z,18.00
2017-07-27T18:38:21.497Z,17.90
2017-07-27T18:40:49.066Z,17.90
2017-07-27T18:43:16.617Z,17.80
2017-07-27T18:45:44.173Z,17.70
2017-07-27T18:48:11.712Z,17.60
2017-07-27T18:50:39.354Z,17.50
2017-07-27T18:53:06.929Z,17.50
2017-07-27T18:55:34.490Z,17.40
2017-07-27T18:58:02.073Z,17.30
2017-07-27T19:00:29.654Z,17.20
2017-07-27T19:02:58.167Z,17.20
2017-07-27T19:05:25.728Z,17.20
2017-07-27T19:07:53.303Z,17.10
2017-07-27T19:10:20.869Z,17.10
2017-07-27T19:12:49.248Z,17.00
2017-07-27T19:15:17.574Z,17.00
2017-07-27T19:17:45.134Z,16.90
2017-07-27T19:20:12.714Z,16.90
2017-07-27T19:22:40.292Z,16.80
2017-07-27T19:25:07.871Z,16.80
2017-07-27T19:27:35.429Z,16.70
2017-07-27T19:30:02.996Z,16.70
2017-07-27T19:32:30.548Z,16.70
2017-07-27T19:34:58.106Z,16.60
2017-07-27T19:37:25.681Z,16.70
2017-07-27T19:39:53.292Z,16.70
2017-07-27T19:42:20.861Z,16.70
2017-07-27T19:44:48.431Z,16.60
2017-07-27T19:47:15.972Z,16.60
2017-07-27T19:49:43.552Z,16.50
2017-07-27T19:52:11.130Z,16.60
2017-07-27T19:54:38.704Z,16.60
2017-07-27T19:57:06.362Z,16.60
2017-07-27T19:59:39.962Z,16.50
2017-07-27T20:02:07.511Z,16.50
2017-07-27T20:04:35.066Z,16.40
2017-07-27T20:07:02.635Z,16.50
2017-07-27T20:09:30.186Z,16.50
2017-07-27T20:11:57.764Z,16.40
2017-07-27T20:14:25.334Z,16.50
2017-07-27T20:16:52.914Z,16.40
2017-07-27T20:19:20.471Z,16.40
2017-07-27T20:21:48.974Z,16.40
2017-07-27T20:24:16.548Z,16.30
2017-07-27T20:26:45.070Z,16.30
2017-07-27T20:29:13.070Z,16.30
2017-07-27T20:31:42.662Z,16.20
2017-07-27T20:34:10.229Z,16.20
2017-07-27T20:36:37.852Z,16.20
2017-07-27T20:39:05.436Z,16.20
2017-07-27T20:41:32.995Z,16.20
2017-07-27T20:44:00.562Z,16.30
2017-07-27T20:46:28.113Z,16.20
2017-07-27T20:48:55.741Z,16.20
2017-07-27T20:51:24.420Z,16.20
2017-07-27T20:53:51.990Z,16.10
2017-07-27T20:56:19.799Z,16.20
2017-07-27T20:58:48.240Z,16.10
2017-07-27T21:01:16.637Z,16.20
2017-07-27T21:03:44.224Z,16.20
2017-07-27T21:06:12.053Z,16.20
2017-07-27T21:08:39.601Z,16.20
2017-07-27T21:11:08.311Z,16.20
2017-07-27T21:13:36.749Z,16.30
2017-07-27T21:16:04.331Z,16.30
2017-07-27T21:18:31.890Z,16.30
2017-07-27T21:20:59.563Z,16.30
2017-07-27T21:23:27.110Z,16.30
2017-07-27T21:25:54.682Z,16.40
2017-07-27T21:28:22.228Z,16.40
2017-07-27T21:30:49.788Z,16.40
2017-07-27T21:33:17.557Z,16.30
2017-07-27T21:35:45.190Z,16.30
2017-07-27T21:38:12.911Z,16.20
2017-07-27T21:40:40.449Z,16.20
2017-07-27T21:43:08.035Z,16.20
2017-07-27T21:45:37.566Z,16.20
2017-07-27T21:48:06.430Z,16.20
2017-07-27T21:50:35.579Z,16.20
2017-07-27T21:53:03.976Z,16.10
2017-07-27T21:55:31.513Z,16.10
2017-07-27T21:57:59.107Z,16.10
2017-07-27T22:00:26.759Z,16.00
2017-07-27T22:02:54.360Z,16.00
2017-07-27T22:05:22.243Z,16.00
2017-07-27T22:07:49.886Z,15.90
2017-07-27T22:10:17.574Z,15.90
2017-07-27T22:12:45.161Z,15.90
2017-07-27T22:15:13.928Z,15.90
2017-07-27T22:17:41.531Z,15.90
2017-07-27T22:20:09.139Z,15.80
2017-07-27T22:22:37.800Z,15.80
2017-07-27T22:25:05.457Z,15.80
2017-07-27T22:27:33.074Z,15.80
2017-07-27T22:30:00.740Z,15.80
2017-07-27T22:32:28.364Z,15.90
2017-07-27T22:34:55.948Z,15.90
2017-07-27T22:37:23.522Z,15.90
2017-07-27T22:39:51.117Z,15.90
2017-07-27T22:42:19.402Z,15.90
2017-07-27T22:44:47.027Z,15.90
2017-07-27T22:47:14.556Z,15.90
2017-07-27T22:49:42.091Z,15.90
2017-07-27T22:52:09.643Z,15.80
2017-07-27T22:54:37.971Z,15.80
2017-07-27T22:57:05.543Z,15.80
2017-07-27T22:59:33.090Z,15.70
2017-07-27T23:02:00.658Z,15.70
2017-07-27T23:04:28.222Z,15.70
2017-07-27T23:06:55.791Z,15.60
2017-07-27T23:09:23.328Z,15.60
2017-07-27T23:11:50.903Z,15.60
2017-07-27T23:14:18.434Z,15.50
2017-07-27T23:16:46.826Z,15.50
2017-07-27T23:19:15.125Z,15.50
2017-07-27T23:21:42.661Z,15.40
2017-07-27T23:24:10.202Z,15.50
2017-07-27T23:26:37.794Z,15.50
2017-07-27T23:29:05.386Z,15.60
2017-07-27T23:31:32.922Z,15.60
2017-07-27T23:34:00.495Z,15.70
2017-07-27T23:36:28.795Z,15.80
2017-07-27T23:38:56.618Z,15.80
2017-07-27T23:41:24.803Z,15.90
2017-07-27T23:43:52.358Z,15.90
2017-07-27T23:46:19.902Z,15.90
2017-07-27T23:48:48.999Z,15.90
2017-07-27T23:51:16.555Z,15.90
2017-07-27T23:53:45.042Z,15.90
2017-07-27T23:56:12.589Z,15.90
2017-07-27T23:58:40.142Z,15.80
